Regina International Airport
CYQR : now visible

Airfield :











YOU CAN JOIN US ON...

 
LOGIN :

Register | Disclaimer

   EN    FR    IT 

 









Legend :    VFR   Marginal VFR   IFR   Intensive IFR   Very Intensive IFR
Visi :
Ceiling :
>= 8 km
>= 3000ft
5 to 8 km
1000 to 3000 ft
1500m to 5 km
500 to 1000 ft
800 to 1500m
200 to 500 ft
< 800m
< 200 ft
Symbols :   Thunderstorms  Fog  Heavy snow  Heavy precipitations  Wind > 20 kt






- Airport Elevation : 1894 ft
- IATA code : YQR


CYQR - Regina International

CURRENT METAR :
  • 050000Z 14005KT 15SM SCT036CB SCT100 BKN300 27/18 A2992 RMK CB3AC1CI4 AC TR SLP134 DENSITY ALT 3700FT

EXPIRED METARs :
  • 042300Z 16008KT 110V170 15SM FEW040CB SCT100 SCT300 29/19 A2992 RMK CB2AC1CI1 SLP133 DENSITY ALT 3900FT
  • 042200Z 13010KT 15SM FEW040TCU SCT300 28/18 A2993 RMK TCU1CI2 SLP139 DENSITY ALT 3900FT

TAF TAF CYQR
Valid from the 05 at 00:00 until the 06 at 00:00 UTC


042338Z 0500/0524 13008KT P6SM SCT040 SCT300
TEMPO 0500/0503 VRB15G25KT P6SM -SHRA VCTS BKN040CB BKN300
PROB30 0500/0503 VRB20G30KT 11/2SM +TSRAGR OVC030CB
FM050300 33012KT P6SM BKN070
FM050600 13005KT P6SM FEW060
BECMG 0507/0509 21012KT
FM050900 21012KT P6SM VCSH BKN090
BECMG 0510/0512 31012KT
FM051500 31008KT P6SM BKN080 BKN200
FM052100 31012KT P6SM FEW040 RMK NXT FCST BY 050600Z
CZWG FIR / North America



MET'MAP, your aeronautical weather chart ! - Copyright ORBIFLY December 2007 - Disclaimer

ORBIFLY MET'MAP TEAM :

Programming & Development : Alexandra Zaïnal
Concept & original design : Baudouin d'Aumeries
Assistance for programming : Marc-Olivier Méhu
Technical & hardware support : Manuel Goepfert

Contact : metmap@orbifly.com




SOURCES & CREDITS :

   NOAA       Earth
Advisory